Time;durP1;ratioP1;P1;durP2;ratioP2;P2;SDS_P1;SDS_P2;PMS_P1;PMS_P2;Temp;Humidity;BMP_temperature;BMP_pressure;BME280_temperature;BME280_humidity;BME280_pressure;Samples;Min_cycle;Max_cycle;Signal;HPM_P1;HPM_P2
2022/05/10 00:02:22;;;;;;;16.03;10.33;;;;;;;19.63;50.33;98035.16;5010746;28;20770;-69
2022/05/10 00:04:50;;;;;;;14.00;10.43;;;;;;;19.52;50.67;98031.16;4993132;28;20180;-69
2022/05/10 00:07:17;;;;;;;12.60;10.73;;;;;;;19.60;50.28;98024.88;5010648;28;20656;-69
2022/05/10 00:09:42;;;;;;;11.20;10.10;;;;;;;19.49;50.58;98024.38;4993610;28;20436;-69
2022/05/10 00:12:08;;;;;;;11.53;10.33;;;;;;;19.56;50.50;98019.13;5010652;28;20505;-69
2022/05/10 00:14:34;;;;;;;12.10;10.80;;;;;;;19.65;50.35;98025.16;4993379;28;20215;-69
2022/05/10 00:17:00;;;;;;;11.60;10.50;;;;;;;19.70;49.61;98019.25;5010447;28;20219;-70
2022/05/10 00:19:27;;;;;;;11.50;10.00;;;;;;;19.72;50.10;98019.88;5011158;28;20796;-68
2022/05/10 00:21:53;;;;;;;11.60;10.37;;;;;;;19.68;50.28;98014.09;4977244;28;20638;-69
2022/05/10 00:24:18;;;;;;;11.37;10.10;;;;;;;19.64;50.22;98015.53;4993144;28;20435;-69
2022/05/10 00:26:44;;;;;;;11.33;10.23;;;;;;;19.39;51.10;98018.56;5011112;28;20192;-68
2022/05/10 00:29:10;;;;;;;11.20;10.10;;;;;;;19.41;50.79;98016.50;5013591;28;20922;-68
2022/05/10 00:31:35;;;;;;;11.67;10.50;;;;;;;19.18;51.21;98011.38;5014437;28;20228;-69
2022/05/10 00:34:01;;;;;;;12.43;10.53;;;;;;;19.08;51.66;98014.34;4996687;28;20196;-69
2022/05/10 00:36:27;;;;;;;11.43;10.40;;;;;;;19.17;51.31;98018.53;4983156;28;20208;-70
2022/05/10 00:38:53;;;;;;;10.60;9.60;;;;;;;19.24;51.24;98015.13;5014460;28;20506;-71
2022/05/10 00:41:32;;;;;;;12.63;10.07;;;;;;;19.26;51.29;98016.56;4996568;28;20204;-69
2022/05/10 00:44:10;;;;;;;11.77;10.43;;;;;;;19.17;51.34;98015.88;5014460;28;20617;-69
2022/05/10 00:46:51;;;;;;;11.40;10.20;;;;;;;19.13;51.52;98014.59;4994193;28;20445;-69
2022/05/10 00:49:29;;;;;;;11.20;10.10;;;;;;;19.24;50.76;98007.16;4996576;28;20454;-68
2022/05/10 00:52:02;;;;;;;12.13;10.93;;;;;;;19.26;50.57;98010.44;4996226;28;20461;-68
2022/05/10 00:54:36;;;;;;;14.20;10.60;;;;;;;19.28;50.59;98003.94;4989219;28;20431;-69
2022/05/10 00:57:36;;;;;;;11.63;10.03;;;;;;;19.13;50.69;98006.63;4995967;28;20459;-69
2022/05/10 01:00:22;;;;;;;12.17;10.57;;;;;;;19.03;51.30;98006.94;5013866;28;20432;-68
2022/05/10 01:03:11;;;;;;;21.07;10.80;;;;;;;19.02;51.45;98005.28;5014264;28;20446;-68
2022/05/10 01:06:16;;;;;;;16.13;11.10;;;;;;;18.96;51.74;98002.56;4990182;28;20477;-68
2022/05/10 01:09:08;;;;;;;12.47;11.20;;;;;;;18.88;51.80;97998.97;4990717;28;20434;-68
2022/05/10 01:11:39;;;;;;;12.53;11.30;;;;;;;18.81;52.06;97995.41;5006397;28;20946;-68
2022/05/10 01:14:26;;;;;;;11.43;10.23;;;;;;;18.93;51.43;97997.56;4996059;28;20793;-68
2022/05/10 01:16:52;;;;;;;14.70;10.50;;;;;;;18.77;51.96;97994.16;4995415;28;20934;-69
2022/05/10 01:19:17;;;;;;;11.60;10.40;;;;;;;18.69;52.20;97992.41;5013632;28;20431;-69
2022/05/10 01:21:48;;;;;;;12.57;10.93;;;;;;;18.72;52.10;97986.72;5013320;28;20710;-69
2022/05/10 01:24:44;;;;;;;12.30;10.50;;;;;;;18.86;51.43;97986.88;5013683;28;20224;-68
2022/05/10 01:27:17;;;;;;;12.20;10.90;;;;;;;18.83;51.52;97982.78;4998111;28;20435;-68
2022/05/10 01:29:47;;;;;;;11.20;10.10;;;;;;;18.83;51.58;97981.97;4996159;28;20439;-68
2022/05/10 01:35:03;;;;;;;15.00;10.97;;;;;;;18.75;51.90;97974.09;5003200;28;20423;-68
2022/05/10 01:37:32;;;;;;;12.10;10.80;;;;;;;18.79;51.71;97975.38;4995346;28;20473;-68
2022/05/10 01:40:31;;;;;;;12.40;10.30;;;;;;;18.85;51.33;97975.44;4995332;28;20445;-68
2022/05/10 01:43:10;;;;;;;11.70;10.50;;;;;;;18.77;51.81;97967.59;4991968;28;20563;-69
2022/05/10 01:45:56;;;;;;;12.50;10.33;;;;;;;18.69;51.76;97965.88;5006441;28;20438;-69
2022/05/10 01:48:22;;;;;;;13.13;11.80;;;;;;;18.58;52.05;97967.16;4994904;28;20420;-70
2022/05/10 01:51:12;;;;;;;11.83;10.60;;;;;;;18.55;52.16;97953.44;5012970;28;20451;-69
2022/05/10 01:53:40;;;;;;;13.07;11.57;;;;;;;18.62;51.73;97956.16;4995035;28;20493;-68
2022/05/10 01:56:10;;;;;;;11.37;10.20;;;;;;;18.64;51.81;97952.31;4994966;28;20529;-68
2022/05/10 01:58:38;;;;;;;12.30;11.00;;;;;;;18.69;51.63;97954.41;4995010;28;21120;-68
2022/05/10 02:01:07;;;;;;;12.20;10.80;;;;;;;18.55;51.64;97954.25;5012286;28;20438;-68
2022/05/10 02:03:52;;;;;;;13.33;10.90;;;;;;;18.44;52.03;97940.66;4995092;28;20863;-69
2022/05/10 02:06:32;;;;;;;12.53;11.23;;;;;;;18.37;52.22;97948.50;5012413;28;20442;-68
2022/05/10 02:09:12;;;;;;;12.50;11.20;;;;;;;18.33;52.45;97952.53;4994767;28;20489;-68
2022/05/10 02:11:44;;;;;;;13.53;12.13;;;;;;;18.26;52.71;97949.78;4994999;28;20549;-68
2022/05/10 02:14:17;;;;;;;13.70;12.00;;;;;;;18.27;52.58;97946.94;4995079;28;20970;-67
2022/05/10 02:16:50;;;;;;;13.07;11.77;;;;;;;18.17;52.49;97953.56;4995042;28;20447;-68
2022/05/10 02:19:15;;;;;;;20.60;11.30;;;;;;;18.06;52.97;97954.81;4994760;28;20466;-69
2022/05/10 02:21:57;;;;;;;12.97;11.00;;;;;;;18.09;53.19;97949.16;5012174;28;20886;-68
2022/05/10 02:24:33;;;;;;;12.97;11.67;;;;;;;18.17;52.53;97945.59;4994413;28;20184;-68
2022/05/10 02:27:04;;;;;;;12.00;10.90;;;;;;;18.06;53.04;97944.22;4994287;28;20442;-71
2022/05/10 02:29:36;;;;;;;12.70;11.50;;;;;;;17.96;53.37;97944.44;4997185;28;20459;-69
2022/05/10 02:35:13;;;;;;;11.80;10.60;;;;;;;18.05;52.66;97940.75;5014728;28;20423;-68
2022/05/10 02:37:38;;;;;;;11.53;10.43;;;;;;;18.07;52.81;97944.03;5011773;28;20469;-69
2022/05/10 02:40:05;;;;;;;11.27;10.27;;;;;;;18.10;52.69;97945.50;5011678;28;20518;-69
2022/05/10 02:42:31;;;;;;;14.33;11.50;;;;;;;18.02;53.04;97948.25;5011897;28;20208;-69
2022/05/10 02:44:57;;;;;;;12.40;11.27;;;;;;;18.13;52.53;97946.94;4994397;28;20427;-70
2022/05/10 02:47:32;;;;;;;11.60;10.40;;;;;;;18.19;52.45;97943.59;5011093;28;20416;-69
2022/05/10 02:49:57;;;;;;;11.40;10.40;;;;;;;18.26;51.89;97940.03;5012003;28;20453;-69
2022/05/10 02:52:23;;;;;;;19.00;10.67;;;;;;;18.16;52.18;97944.75;4993323;28;20455;-69
2022/05/10 02:54:56;;;;;;;11.40;10.30;;;;;;;18.07;52.63;97941.41;5011668;28;20192;-69
2022/05/10 02:57:24;;;;;;;13.10;10.50;;;;;;;18.05;52.41;97943.41;4993858;28;20204;-69
2022/05/10 02:59:50;;;;;;;11.97;10.83;;;;;;;18.01;52.35;97936.00;5011953;28;20513;-70
2022/05/10 03:02:23;;;;;;;11.40;10.40;;;;;;;18.03;52.39;97936.59;4993741;28;20483;-68
2022/05/10 03:04:56;;;;;;;13.47;11.10;;;;;;;18.00;52.74;97937.00;4993937;28;20188;-69
2022/05/10 03:07:22;;;;;;;11.60;10.60;;;;;;;18.02;52.53;97932.34;5010644;28;20423;-69
2022/05/10 03:09:48;;;;;;;13.57;11.77;;;;;;;18.12;52.40;97940.84;5011482;28;20424;-68
2022/05/10 03:12:14;;;;;;;12.73;11.53;;;;;;;18.09;52.18;97927.94;5011195;28;20459;-70
2022/05/10 03:14:40;;;;;;;12.87;11.50;;;;;;;18.07;52.69;97941.41;5011319;28;20184;-70
2022/05/10 03:17:05;;;;;;;12.17;10.93;;;;;;;17.92;52.83;97935.22;4977271;28;20474;-68
2022/05/10 03:19:32;;;;;;;12.37;10.80;;;;;;;17.86;52.84;97939.41;5011507;28;20190;-69
2022/05/10 03:21:57;;;;;;;15.03;11.00;;;;;;;17.87;52.65;97935.75;4993225;28;20212;-69
2022/05/10 03:24:23;;;;;;;12.37;11.07;;;;;;;17.92;52.66;97933.38;5011365;28;20809;-69
2022/05/10 03:26:51;;;;;;;13.40;12.20;;;;;;;17.88;53.23;97934.75;5011071;28;20184;-68
2022/05/10 03:29:17;;;;;;;13.00;11.80;;;;;;;17.93;52.89;97929.72;4993868;28;20188;-68
2022/05/10 03:31:43;;;;;;;11.77;10.73;;;;;;;17.99;52.74;97927.38;5010850;28;20510;-69
2022/05/10 03:36:53;;;;;;;12.60;11.47;;;;;;;17.95;52.69;97930.38;5009948;28;20207;-68
2022/05/10 03:39:19;;;;;;;14.63;11.10;;;;;;;17.90;52.62;97924.78;5010487;28;20439;-70
2022/05/10 03:41:48;;;;;;;11.97;10.80;;;;;;;17.90;52.32;97924.78;5008397;28;20212;-73
2022/05/10 03:44:14;;;;;;;12.23;11.03;;;;;;;17.84;52.71;97930.81;5002430;28;20467;-68
2022/05/10 03:46:39;;;;;;;12.73;11.53;;;;;;;17.85;52.73;97935.13;4992734;28;20514;-69
2022/05/10 03:49:05;;;;;;;12.33;11.03;;;;;;;17.88;52.52;97932.13;5007522;28;20219;-69
2022/05/10 03:51:31;;;;;;;12.97;10.70;;;;;;;17.94;52.67;97941.97;5010758;28;20211;-69
2022/05/10 03:53:57;;;;;;;13.50;12.20;;;;;;;17.86;53.05;97922.66;4972721;28;20196;-68
2022/05/10 03:56:23;;;;;;;13.43;12.13;;;;;;;17.82;52.93;97935.47;4992483;28;20188;-70
2022/05/10 03:58:49;;;;;;;14.73;11.07;;;;;;;17.79;53.31;97927.88;4992911;28;21081;-69
2022/05/10 04:01:18;;;;;;;13.40;11.93;;;;;;;17.89;52.91;97927.63;4992624;28;20433;-68
2022/05/10 04:03:44;;;;;;;12.90;11.60;;;;;;;17.78;52.72;97928.88;5011687;28;20730;-68
2022/05/10 04:06:10;;;;;;;16.40;10.73;;;;;;;17.75;53.01;97934.56;5014158;28;20438;-68
2022/05/10 04:08:36;;;;;;;12.90;11.70;;;;;;;17.68;53.33;97925.66;5014198;28;20181;-68
2022/05/10 04:11:08;;;;;;;16.73;11.60;;;;;;;17.57;53.52;97927.75;5012986;28;20438;-69
2022/05/10 04:13:34;;;;;;;12.50;11.27;;;;;;;17.59;53.55;97931.06;5014229;28;20192;-68
2022/05/10 04:15:59;;;;;;;13.17;11.87;;;;;;;17.58;53.61;97929.41;4996134;28;20435;-68
2022/05/10 04:18:26;;;;;;;13.00;11.80;;;;;;;17.71;53.50;97934.06;5013130;28;20671;-67
2022/05/10 04:20:52;;;;;;;13.10;11.90;;;;;;;17.78;53.36;97932.38;5014220;28;20687;-68
2022/05/10 04:23:17;;;;;;;15.40;13.80;;;;;;;17.79;53.54;97926.06;4996359;28;20486;-68
2022/05/10 04:25:43;;;;;;;13.40;12.10;;;;;;;17.84;53.53;97924.69;5013324;28;20736;-68
2022/05/10 04:28:09;;;;;;;12.40;11.23;;;;;;;17.69;53.74;97932.63;5013445;28;20188;-67
2022/05/10 04:30:34;;;;;;;13.13;11.83;;;;;;;17.63;54.09;97929.69;5014251;28;20188;-67
2022/05/10 04:33:00;;;;;;;15.83;12.03;;;;;;;17.68;53.90;97926.50;5018972;28;20218;-66
2022/05/10 04:35:25;;;;;;;14.20;12.77;;;;;;;17.49;54.58;97930.47;5014123;28;20565;-68
2022/05/10 04:37:51;;;;;;;14.23;12.73;;;;;;;17.53;54.75;97929.09;5013775;28;20208;-67
2022/05/10 04:43:00;;;;;;;17.40;12.30;;;;;;;17.55;54.91;97934.25;5012439;28;20270;-69
2022/05/10 04:45:27;;;;;;;14.70;12.30;;;;;;;17.66;54.83;97933.81;5012655;28;20435;-69
2022/05/10 04:47:53;;;;;;;14.10;11.70;;;;;;;17.70;55.08;97934.25;5013543;28;20180;-68
2022/05/10 04:50:18;;;;;;;14.27;12.53;;;;;;;17.84;54.75;97937.94;5012222;28;21963;-69
2022/05/10 04:52:44;;;;;;;14.50;12.33;;;;;;;17.83;54.80;97931.81;5013553;28;20212;-68
2022/05/10 04:55:10;;;;;;;13.87;12.47;;;;;;;17.80;54.72;97926.88;4995529;28;20551;-68
2022/05/10 04:57:36;;;;;;;15.07;12.73;;;;;;;17.87;55.18;97930.47;5015124;28;20216;-69
2022/05/10 05:00:04;;;;;;;14.73;12.20;;;;;;;18.05;54.87;97931.94;5015960;28;20434;-67
2022/05/10 05:02:29;;;;;;;15.20;12.47;;;;;;;18.18;54.57;97926.81;4995708;28;20453;-69
2022/05/10 05:04:54;;;;;;;14.33;12.13;;;;;;;18.35;53.84;97931.94;5013036;28;20439;-70
2022/05/10 05:07:20;;;;;;;14.90;13.40;;;;;;;18.37;54.26;97935.25;5011116;28;20181;-68
2022/05/10 05:09:45;;;;;;;37.07;30.70;;;;;;;18.51;53.87;97931.75;5013093;28;20243;-70
2022/05/10 05:12:11;;;;;;;24.20;19.20;;;;;;;18.56;54.15;97934.66;5012883;28;20239;-67
2022/05/10 05:14:37;;;;;;;28.60;23.20;;;;;;;18.65;54.27;97938.03;5012317;28;20717;-68
2022/05/10 05:17:03;;;;;;;22.97;19.63;;;;;;;18.75;54.24;97931.59;5011879;28;20443;-68
2022/05/10 05:19:29;;;;;;;21.90;18.27;;;;;;;18.84;54.32;97938.44;5012173;28;20973;-68
2022/05/10 05:21:54;;;;;;;16.70;14.37;;;;;;;18.90;53.11;97950.16;5013164;28;20703;-69
2022/05/10 05:24:20;;;;;;;13.23;11.93;;;;;;;18.92;52.76;97942.81;5012850;28;20188;-68
2022/05/10 05:26:47;;;;;;;13.70;12.40;;;;;;;18.96;52.00;97944.13;4995191;28;20187;-69
2022/05/10 05:29:13;;;;;;;20.07;12.20;;;;;;;18.96;52.04;97941.47;4994012;28;20298;-67
2022/05/10 05:31:39;;;;;;;13.73;12.37;;;;;;;19.02;52.08;97948.69;4995314;28;20498;-69
2022/05/10 05:34:04;;;;;;;17.00;12.27;;;;;;;19.10;52.00;97953.88;4994969;28;20822;-68
2022/05/10 05:36:29;;;;;;;18.20;12.90;;;;;;;19.19;52.16;97954.59;5011542;28;20234;-70
2022/05/10 05:38:55;;;;;;;15.03;11.90;;;;;;;19.27;52.40;97948.31;5013072;28;20219;-69
2022/05/10 05:41:21;;;;;;;32.87;12.37;;;;;;;19.41;52.41;97947.41;5012449;28;20200;-69
2022/05/10 05:43:47;;;;;;;15.93;12.20;;;;;;;19.51;52.01;97941.78;5010358;28;20435;-69
2022/05/10 05:46:13;;;;;;;15.07;11.90;;;;;;;19.59;52.00;97946.13;5012544;28;20193;-69
2022/05/10 05:48:38;;;;;;;13.23;11.87;;;;;;;19.73;51.66;97953.22;5010338;28;20188;-69
2022/05/10 05:51:04;;;;;;;19.20;13.20;;;;;;;19.84;51.27;97951.03;5011192;28;20442;-69
2022/05/10 05:53:30;;;;;;;13.47;12.20;;;;;;;19.97;51.26;97951.16;4995528;28;20246;-69
2022/05/10 05:56:04;;;;;;;17.10;11.40;;;;;;;19.98;51.03;97958.13;5012549;28;20526;-68
2022/05/10 05:58:30;;;;;;;14.80;11.33;;;;;;;19.98;50.46;97950.13;5005134;28;20554;-68
2022/05/10 06:00:55;;;;;;;16.03;11.20;;;;;;;20.03;50.68;97960.19;4995628;28;20442;-69
2022/05/10 06:03:21;;;;;;;13.17;11.80;;;;;;;20.04;50.41;97952.00;5012698;28;20212;-70
2022/05/10 06:05:49;;;;;;;13.30;10.97;;;;;;;20.04;50.29;97959.97;5012330;28;20180;-68
2022/05/10 06:08:16;;;;;;;12.60;11.30;;;;;;;20.24;49.69;97957.44;5012068;28;20918;-68
2022/05/10 06:10:42;;;;;;;12.20;11.10;;;;;;;20.13;49.61;97954.53;5012627;28;20431;-70
2022/05/10 06:13:08;;;;;;;12.97;11.73;;;;;;;20.19;49.80;97959.06;5012199;28;20458;-69
2022/05/10 06:15:33;;;;;;;12.87;11.13;;;;;;;20.32;49.77;97955.66;5012352;28;20769;-68
2022/05/10 06:17:59;;;;;;;12.20;11.00;;;;;;;20.42;49.76;97950.78;5012115;28;20509;-70
2022/05/10 06:20:25;;;;;;;13.40;11.80;;;;;;;20.51;49.90;97952.25;5011883;28;20185;-68
2022/05/10 06:22:51;;;;;;;12.93;11.60;;;;;;;20.66;49.80;97949.47;5012281;28;20213;-68
2022/05/10 06:25:19;;;;;;;14.90;11.23;;;;;;;20.70;49.81;97961.34;5011382;28;20195;-70
2022/05/10 06:27:46;;;;;;;12.83;11.53;;;;;;;20.88;49.71;97952.03;4994463;28;20191;-70
2022/05/10 06:30:12;;;;;;;14.57;10.30;;;;;;;21.14;49.14;97956.59;4994714;28;20510;-69
2022/05/10 06:32:37;;;;;;;15.87;10.77;;;;;;;21.11;49.17;97956.19;5011660;28;20915;-69
2022/05/10 06:35:03;;;;;;;11.97;10.83;;;;;;;21.11;48.71;97950.84;5001815;28;20467;-68
2022/05/10 06:40:16;;;;;;;11.50;10.30;;;;;;;21.56;48.36;97956.41;4996417;28;20432;-68
2022/05/10 06:42:41;;;;;;;11.33;10.33;;;;;;;21.52;48.17;97954.38;4994499;28;20486;-68
2022/05/10 06:45:10;;;;;;;11.03;9.93;;;;;;;21.73;48.27;97946.22;5011245;28;20946;-69
2022/05/10 06:47:41;;;;;;;10.33;9.33;;;;;;;22.08;47.89;97942.44;4994256;28;20197;-70
2022/05/10 06:50:09;;;;;;;13.67;9.80;;;;;;;22.38;47.73;97940.13;4993552;28;20787;-68
2022/05/10 06:52:34;;;;;;;10.93;9.93;;;;;;;22.61;47.27;97943.34;5011664;28;21001;-67
2022/05/10 06:55:00;;;;;;;11.20;10.00;;;;;;;22.79;46.71;97951.50;5011144;28;20531;-70
2022/05/10 06:57:26;;;;;;;11.60;9.77;;;;;;;23.01;46.18;97941.28;5011215;28;20291;-68
2022/05/10 06:59:53;;;;;;;11.73;9.90;;;;;;;23.25;46.05;97946.13;5011294;28;20276;-68
2022/05/10 07:02:18;;;;;;;12.20;8.30;;;;;;;23.51;45.82;97939.75;5011523;28;20208;-69
2022/05/10 07:04:43;;;;;;;12.30;8.87;;;;;;;23.77;46.01;97941.38;5014284;28;21144;-68
2022/05/10 07:07:09;;;;;;;13.90;8.27;;;;;;;23.93;44.41;97934.66;5011137;28;20214;-68
2022/05/10 07:09:34;;;;;;;13.03;9.60;;;;;;;24.13;44.38;97938.19;5011286;28;20184;-68
2022/05/10 07:12:00;;;;;;;8.23;7.53;;;;;;;24.32;43.42;97931.78;5011373;28;20282;-69
2022/05/10 07:14:25;;;;;;;7.90;7.20;;;;;;;24.41;42.01;97935.00;4993428;28;20190;-68
2022/05/10 07:16:51;;;;;;;9.07;7.60;;;;;;;24.45;41.04;97935.34;5010762;28;20196;-69
2022/05/10 07:19:16;;;;;;;9.37;7.20;;;;;;;24.46;40.04;97931.63;4993064;28;20203;-68
2022/05/10 07:21:43;;;;;;;10.13;7.00;;;;;;;24.55;39.86;97930.31;4986847;28;20204;-69
2022/05/10 07:24:08;;;;;;;9.03;7.20;;;;;;;24.60;39.66;97934.97;5010793;28;20193;-68
2022/05/10 07:26:34;;;;;;;8.80;7.97;;;;;;;24.29;41.18;97934.94;5010600;28;20436;-70
2022/05/10 07:28:59;;;;;;;9.57;8.07;;;;;;;24.49;41.57;97934.69;5010760;28;20185;-69
2022/05/10 07:31:24;;;;;;;10.53;7.70;;;;;;;24.76;40.87;97930.88;5010704;28;20335;-69
2022/05/10 07:33:50;;;;;;;11.73;7.87;;;;;;;24.91;40.71;97931.31;5010944;28;20656;-71
2022/05/10 07:36:24;;;;;;;9.97;8.23;;;;;;;24.98;40.49;97929.34;5010669;28;20184;-71
2022/05/10 07:38:51;;;;;;;8.07;7.43;;;;;;;25.25;40.61;97933.50;5011183;28;20700;-69
2022/05/10 07:41:24;;;;;;;8.53;7.60;;;;;;;25.27;40.29;97934.91;5010611;28;20435;-70
2022/05/10 07:43:50;;;;;;;9.30;7.50;;;;;;;25.48;40.65;97932.75;5010954;28;21352;-68
2022/05/10 07:46:16;;;;;;;9.67;7.03;;;;;;;25.64;39.65;97935.81;5010826;28;20434;-69
2022/05/10 07:48:43;;;;;;;7.97;7.17;;;;;;;25.83;39.35;97934.66;5010851;28;20427;-69
2022/05/10 07:51:09;;;;;;;7.60;6.90;;;;;;;25.97;38.64;97929.84;5010530;28;20439;-67
2022/05/10 07:53:35;;;;;;;9.60;6.93;;;;;;;26.10;38.87;97933.34;5011023;28;20477;-69
2022/05/10 07:56:02;;;;;;;12.70;10.03;;;;;;;26.36;38.46;97926.66;5010324;28;20185;-70
2022/05/10 07:58:29;;;;;;;8.07;7.27;;;;;;;26.52;37.96;97925.13;5010168;28;20524;-70
2022/05/10 08:00:55;;;;;;;8.13;7.17;;;;;;;26.49;36.88;97925.59;5009891;28;20501;-69
2022/05/10 08:03:22;;;;;;;7.00;6.40;;;;;;;26.67;36.96;97922.72;5010896;28;20440;-69
2022/05/10 08:05:48;;;;;;;7.27;6.63;;;;;;;26.67;36.19;97929.97;5010897;28;20977;-68
2022/05/10 08:08:17;;;;;;;8.87;6.80;;;;;;;26.69;36.22;97922.50;4993122;28;20427;-68
2022/05/10 08:10:44;;;;;;;9.00;6.53;;;;;;;26.39;36.33;97923.50;5010567;28;20279;-69
2022/05/10 08:13:15;;;;;;;6.43;5.93;;;;;;;26.70;36.73;97921.44;5010885;28;20538;-69
2022/05/10 08:15:40;;;;;;;7.10;6.40;;;;;;;26.90;36.30;97920.19;5011195;28;20427;-69
2022/05/10 08:18:07;;;;;;;9.60;6.43;;;;;;;27.06;35.51;97924.81;5010077;28;20469;-67
2022/05/10 08:20:32;;;;;;;6.77;6.17;;;;;;;27.11;35.32;97927.56;4993208;28;20227;-68
2022/05/10 08:22:58;;;;;;;15.20;6.50;;;;;;;26.90;35.23;97920.19;5010689;28;20479;-68
2022/05/10 08:25:23;;;;;;;6.60;6.00;;;;;;;27.07;35.15;97920.22;5010495;28;20188;-69
2022/05/10 08:27:49;;;;;;;8.03;6.00;;;;;;;27.28;35.85;97919.50;5010489;28;20238;-69
2022/05/10 08:30:15;;;;;;;8.87;6.90;;;;;;;27.27;34.96;97919.78;5010460;28;20556;-69
2022/05/10 08:32:42;;;;;;;10.87;6.10;;;;;;;27.48;35.03;97920.13;5010550;28;20220;-68
2022/05/10 08:35:08;;;;;;;14.33;6.80;;;;;;;27.64;34.64;97930.06;5010331;28;20424;-68
2022/05/10 08:37:36;;;;;;;7.33;6.63;;;;;;;27.73;34.22;97920.50;5012456;28;20539;-68
2022/05/10 08:40:12;;;;;;;10.83;6.10;;;;;;;28.05;34.10;97914.50;5010204;28;20427;-69
2022/05/10 08:42:46;;;;;;;10.30;5.87;;;;;;;28.26;33.27;97917.50;5010444;28;20458;-67
2022/05/10 08:45:11;;;;;;;6.67;5.37;;;;;;;27.99;34.12;97926.25;5010128;28;20423;-69
2022/05/10 08:47:37;;;;;;;6.67;5.97;;;;;;;28.12;33.39;97916.22;5010489;28;20977;-70
2022/05/10 08:50:09;;;;;;;6.83;5.87;;;;;;;27.83;32.54;97921.75;4994897;28;20188;-69
2022/05/10 08:52:39;;;;;;;10.63;5.90;;;;;;;27.80;32.69;97914.16;5013681;28;20621;-68
2022/05/10 08:55:06;;;;;;;6.40;5.90;;;;;;;28.07;32.98;97908.06;4996205;28;20431;-68
2022/05/10 08:57:38;;;;;;;6.80;6.10;;;;;;;28.30;32.25;97915.94;4995790;28;20462;-70
2022/05/10 09:00:13;;;;;;;6.20;5.70;;;;;;;28.68;31.59;97913.38;5013596;28;20953;-70
2022/05/10 09:02:44;;;;;;;5.67;5.20;;;;;;;28.79;29.81;97911.66;4995911;28;20457;-69
2022/05/10 09:05:09;;;;;;;7.33;5.60;;;;;;;29.10;30.29;97907.38;4996260;28;20462;-69
2022/05/10 09:07:56;;;;;;;6.33;5.73;;;;;;;28.26;31.13;97920.19;5013493;28;20427;-68
2022/05/10 09:10:49;;;;;;;7.20;5.30;;;;;;;28.66;31.11;97908.25;5013408;28;20211;-69
2022/05/10 09:13:16;;;;;;;6.10;5.50;;;;;;;29.17;30.90;97907.16;5013193;28;20470;-70
2022/05/10 09:15:46;;;;;;;6.10;5.63;;;;;;;29.11;29.85;97908.19;5013604;28;20435;-68
2022/05/10 09:18:17;;;;;;;8.33;5.70;;;;;;;29.49;30.21;97903.66;4978514;28;20467;-69
2022/05/10 09:20:52;;;;;;;5.57;5.07;;;;;;;29.79;29.59;97904.94;5013153;28;20427;-70
2022/05/10 09:23:44;;;;;;;5.20;4.70;;;;;;;29.58;27.81;97906.69;4994946;28;20447;-69
2022/05/10 09:26:12;;;;;;;4.53;4.20;;;;;;;29.01;26.90;97905.38;5013271;28;20447;-69
2022/05/10 09:28:46;;;;;;;4.73;4.33;;;;;;;29.39;27.15;97908.97;5013371;28;20447;-69
2022/05/10 09:36:55;;;;;;;6.00;4.27;;;;;;;29.94;25.94;97900.72;5012069;28;20423;-69
2022/05/10 09:39:34;;;;;;;7.00;4.97;;;;;;;30.22;26.76;97887.91;5013708;28;20463;-68
2022/05/10 09:41:59;;;;;;;4.97;4.50;;;;;;;30.18;26.30;97893.84;4995591;28;20330;-69
2022/05/10 09:44:27;;;;;;;7.73;5.47;;;;;;;30.37;26.90;97890.66;5013996;28;20517;-69
2022/05/10 09:47:14;;;;;;;6.43;5.70;;;;;;;30.39;26.84;97885.78;5013247;28;20184;-69
2022/05/10 09:49:40;;;;;;;7.10;4.53;;;;;;;30.30;26.05;97895.50;4989457;28;20462;-69
2022/05/10 09:52:16;;;;;;;4.83;4.53;;;;;;;30.36;26.88;97880.94;4995344;28;20570;-68
2022/05/10 09:54:41;;;;;;;5.07;4.67;;;;;;;30.47;26.05;97885.31;4995548;28;20186;-68
2022/05/10 09:57:24;;;;;;;5.00;4.60;;;;;;;30.90;25.75;97884.31;4994457;28;20490;-69
2022/05/10 09:59:50;;;;;;;5.23;4.43;;;;;;;31.00;26.03;97878.13;4995385;28;20395;-69
2022/05/10 10:02:36;;;;;;;6.80;4.63;;;;;;;31.18;26.31;97876.78;5012744;28;20465;-68
2022/05/10 10:05:25;;;;;;;9.70;6.30;;;;;;;31.63;26.30;97871.59;5012433;28;20172;-69
2022/05/10 10:07:54;;;;;;;4.77;4.37;;;;;;;31.75;24.80;97874.06;5012893;28;20497;-69
2022/05/10 10:10:24;;;;;;;10.43;4.67;;;;;;;31.41;25.41;97872.72;4994921;28;20957;-69
2022/05/10 10:12:50;;;;;;;5.10;4.60;;;;;;;30.97;24.82;97875.94;5012583;28;20447;-69
2022/05/10 10:15:36;;;;;;;5.47;4.57;;;;;;;30.55;26.08;97864.25;5012648;28;20466;-68
2022/05/10 10:18:04;;;;;;;5.00;4.40;;;;;;;30.34;26.04;97869.56;5011877;28;20195;-68
2022/05/10 10:20:33;;;;;;;4.40;4.07;;;;;;;30.87;25.56;97865.94;5012497;28;20498;-70
2022/05/10 10:23:03;;;;;;;9.33;4.20;;;;;;;30.64;25.48;97862.63;5012017;28;20957;-72
2022/05/10 10:25:35;;;;;;;5.37;4.40;;;;;;;30.09;25.82;97863.00;4995240;28;20424;-69
2022/05/10 10:28:23;;;;;;;7.37;4.20;;;;;;;30.77;25.89;97862.13;4994175;28;20466;-70
2022/05/10 10:30:50;;;;;;;4.87;4.47;;;;;;;30.90;25.84;97862.69;4997230;28;20423;-68
2022/05/10 10:33:27;;;;;;;4.90;4.10;;;;;;;30.91;25.50;97856.19;5010788;28;20455;-69
2022/05/10 10:36:08;;;;;;;5.33;4.83;;;;;;;30.79;25.58;97851.84;4994497;28;20430;-69
2022/05/10 10:38:50;;;;;;;4.77;4.37;;;;;;;30.77;25.82;97855.91;4993980;28;20842;-67
2022/05/10 10:41:28;;;;;;;4.97;4.40;;;;;;;31.02;25.99;97857.81;5011749;28;20506;-68
2022/05/10 10:44:03;;;;;;;5.40;4.20;;;;;;;30.71;25.81;97857.81;5012070;28;20446;-70
2022/05/10 10:46:36;;;;;;;5.20;4.20;;;;;;;30.61;25.06;97847.75;4994608;28;20968;-68
2022/05/10 10:49:12;;;;;;;5.67;3.77;;;;;;;30.43;25.22;97843.66;5010462;28;20427;-69
2022/05/10 10:51:37;;;;;;;5.93;3.90;;;;;;;30.26;25.53;97843.88;5011586;28;20970;-69
2022/05/10 10:54:04;;;;;;;4.33;3.80;;;;;;;30.10;24.95;97832.19;4994008;28;20441;-69
2022/05/10 10:57:01;;;;;;;9.20;4.43;;;;;;;30.55;25.77;97837.22;4993745;28;20238;-68
2022/05/10 10:59:52;;;;;;;5.93;4.43;;;;;;;30.76;24.14;97833.44;5010595;28;20419;-70
2022/05/10 11:02:23;;;;;;;4.20;3.90;;;;;;;30.96;24.54;97826.44;5011198;28;20447;-68
2022/05/10 11:05:01;;;;;;;4.60;4.20;;;;;;;30.77;24.63;97829.66;4993970;28;20450;-69
2022/05/10 11:07:36;;;;;;;4.13;3.70;;;;;;;30.59;23.77;97830.19;5004001;28;20422;-68
2022/05/10 11:10:22;;;;;;;4.20;3.63;;;;;;;30.48;24.31;97827.44;5011121;28;20418;-69
2022/05/10 11:12:52;;;;;;;3.73;3.37;;;;;;;30.57;24.04;97819.63;4994469;28;20505;-69
2022/05/10 11:15:33;;;;;;;4.97;3.70;;;;;;;30.48;24.55;97818.50;4993833;28;20938;-69
2022/05/10 11:18:11;;;;;;;4.17;3.77;;;;;;;30.52;24.86;97813.38;5007753;28;20825;-74
2022/05/10 11:20:48;;;;;;;6.50;4.23;;;;;;;30.53;25.43;97810.41;5001037;28;20453;-69
2022/05/10 11:23:36;;;;;;;4.20;3.90;;;;;;;30.65;24.86;97807.47;4993412;28;20479;-70
2022/05/10 11:26:20;;;;;;;4.60;4.20;;;;;;;30.67;25.10;97810.72;4978017;28;20427;-69
2022/05/10 11:28:52;;;;;;;4.13;3.73;;;;;;;30.73;24.62;97806.97;5004181;28;20471;-69
2022/05/10 11:31:26;;;;;;;5.10;3.90;;;;;;;30.88;24.80;97802.59;5010723;28;20422;-68
2022/05/10 11:34:17;;;;;;;5.30;3.80;;;;;;;30.92;25.26;97795.59;5009913;28;20434;-68
2022/05/10 11:36:48;;;;;;;4.53;4.13;;;;;;;31.24;24.14;97792.59;5010616;28;20430;-69
2022/05/10 11:39:44;;;;;;;4.13;3.70;;;;;;;31.65;23.48;97802.53;5010546;28;20459;-68
2022/05/10 11:42:48;;;;;;;4.83;3.83;;;;;;;31.98;23.46;97789.44;5009294;28;20929;-69
2022/05/10 11:45:52;;;;;;;4.57;3.70;;;;;;;32.06;22.24;97788.06;4912175;29;21004;-69
2022/05/10 11:48:37;;;;;;;3.90;3.50;;;;;;;31.78;22.37;97784.09;4969142;28;20455;-69
2022/05/10 11:54:11;;;;;;;4.30;3.20;;;;;;;31.29;22.72;97786.38;5009128;28;20439;-68
2022/05/10 11:56:38;;;;;;;7.17;3.40;;;;;;;31.01;23.19;97785.84;5004533;28;21200;-68
2022/05/10 11:59:05;;;;;;;4.93;3.30;;;;;;;30.74;22.12;97778.00;5010863;28;20495;-69
2022/05/10 12:01:46;;;;;;;3.37;3.17;;;;;;;30.68;22.65;97777.19;4993406;28;20920;-69
2022/05/10 12:04:43;;;;;;;4.93;3.63;;;;;;;30.80;22.92;97774.22;4992963;28;20423;-69